Time;durP1;ratioP1;P1;durP2;ratioP2;P2;SDS_P1;SDS_P2;PMS_P1;PMS_P2;Temp;Humidity;BMP_temperature;BMP_pressure;BME280_temperature;BME280_humidity;BME280_pressure;Samples;Min_cycle;Max_cycle;Signal;HPM_P1;HPM_P2
2023/07/17 00:00:19;;;;;;;21.48;11.68;;;22.00;99.90;;;;;;5070354;28;20043;-76
2023/07/17 00:02:46;;;;;;;13.15;11.70;;;22.00;99.90;;;;;;5069288;28;20040;-76
2023/07/17 00:05:14;;;;;;;12.90;11.25;;;21.90;99.90;;;;;;5071085;28;20040;-76
2023/07/17 00:07:43;;;;;;;14.77;11.00;;;21.90;99.90;;;;;;5071434;28;20473;-76
2023/07/17 00:10:11;;;;;;;14.65;11.27;;;21.90;99.90;;;;;;5068662;28;20046;-78
2023/07/17 00:12:39;;;;;;;24.58;17.27;;;21.90;99.90;;;;;;5070656;28;20044;-75
2023/07/17 00:15:07;;;;;;;16.25;13.82;;;22.00;99.90;;;;;;5070361;28;20045;-76
2023/07/17 00:17:36;;;;;;;15.80;13.13;;;22.00;99.90;;;;;;5070327;28;20094;-76
2023/07/17 00:20:05;;;;;;;14.15;12.63;;;22.00;99.90;;;;;;5069870;28;20037;-78
2023/07/17 00:22:34;;;;;;;16.52;11.32;;;21.90;99.90;;;;;;5070779;28;20055;-74
2023/07/17 00:25:04;;;;;;;12.65;11.23;;;21.80;99.90;;;;;;5063855;28;20384;-75
2023/07/17 00:27:31;;;;;;;16.35;11.20;;;21.80;99.90;;;;;;5050531;28;20049;-75
2023/07/17 00:29:59;;;;;;;11.88;10.68;;;21.70;99.90;;;;;;5048347;28;20053;-75
2023/07/17 00:32:26;;;;;;;16.83;11.05;;;21.70;99.90;;;;;;5050138;28;20571;-75
2023/07/17 00:34:53;;;;;;;14.10;11.35;;;21.70;99.90;;;;;;5049205;28;20045;-75
2023/07/17 00:37:21;;;;;;;13.35;11.32;;;21.70;99.90;;;;;;5048978;28;20047;-77
2023/07/17 00:39:49;;;;;;;13.10;10.75;;;21.60;99.90;;;;;;5049366;28;20049;-75
2023/07/17 00:42:18;;;;;;;14.07;10.95;;;21.60;99.90;;;;;;5050154;28;20049;-76
2023/07/17 00:44:45;;;;;;;12.68;11.38;;;21.60;99.90;;;;;;5066313;28;20098;-76
2023/07/17 00:47:14;;;;;;;16.05;12.38;;;21.50;99.90;;;;;;5070753;28;20119;-78
2023/07/17 00:49:42;;;;;;;15.02;11.82;;;21.50;99.90;;;;;;5069287;28;20048;-76
2023/07/17 00:52:11;;;;;;;12.15;10.70;;;21.50;99.90;;;;;;5069343;28;20061;-76
2023/07/17 00:54:41;;;;;;;14.65;11.13;;;21.40;99.90;;;;;;5068873;28;20039;-75
2023/07/17 00:57:12;;;;;;;14.73;11.40;;;21.40;99.90;;;;;;5068880;28;20045;-75
2023/07/17 00:59:42;;;;;;;14.95;11.98;;;21.30;99.90;;;;;;5068205;28;20040;-76
2023/07/17 01:02:11;;;;;;;13.98;11.30;;;21.30;99.90;;;;;;5068958;28;20076;-75
2023/07/17 01:04:43;;;;;;;14.18;11.85;;;21.30;99.90;;;;;;5069735;28;20044;-76
2023/07/17 01:07:11;;;;;;;14.23;11.20;;;21.40;99.90;;;;;;5069667;28;20103;-75
2023/07/17 01:09:38;;;;;;;13.73;11.27;;;21.40;99.90;;;;;;5068390;28;20037;-75
2023/07/17 01:12:06;;;;;;;13.73;11.38;;;21.40;99.90;;;;;;5067552;28;20049;-77
2023/07/17 01:14:34;;;;;;;17.65;11.38;;;21.40;99.90;;;;;;5067982;28;20049;-76
2023/07/17 01:17:04;;;;;;;13.48;11.65;;;21.30;99.90;;;;;;5068622;28;20098;-76
2023/07/17 01:19:31;;;;;;;15.60;12.48;;;21.20;99.90;;;;;;5068819;28;20048;-75
2023/07/17 01:22:00;;;;;;;14.70;11.85;;;21.20;99.90;;;;;;5056848;28;20045;-75
2023/07/17 01:24:29;;;;;;;14.45;11.88;;;21.30;99.90;;;;;;5048229;28;20041;-77
2023/07/17 01:26:57;;;;;;;15.43;12.38;;;21.30;99.90;;;;;;5049248;28;20072;-76
2023/07/17 01:29:24;;;;;;;15.57;12.38;;;21.30;99.90;;;;;;5048070;28;20056;-75
2023/07/17 01:31:53;;;;;;;17.35;11.98;;;21.30;99.90;;;;;;5047944;28;20358;-75
2023/07/17 01:34:20;;;;;;;17.40;12.10;;;21.30;99.90;;;;;;5049428;28;20040;-77
2023/07/17 01:36:48;;;;;;;14.30;11.30;;;21.20;99.90;;;;;;5047705;28;20540;-76
2023/07/17 01:39:16;;;;;;;15.48;11.93;;;21.20;99.90;;;;;;5047665;28;20135;-75
2023/07/17 01:41:45;;;;;;;13.93;11.15;;;21.30;99.90;;;;;;5048481;28;20040;-75
2023/07/17 01:44:12;;;;;;;12.07;10.98;;;21.30;99.90;;;;;;5058260;28;20045;-76
2023/07/17 01:46:39;;;;;;;15.52;12.15;;;21.30;99.90;;;;;;5069092;28;20059;-77
2023/07/17 01:49:07;;;;;;;12.80;11.45;;;21.20;99.90;;;;;;5069149;28;20037;-75
2023/07/17 01:51:35;;;;;;;13.18;11.73;;;21.20;99.90;;;;;;5068069;28;20053;-76
2023/07/17 01:54:02;;;;;;;13.93;12.07;;;21.20;99.90;;;;;;5069439;28;20041;-76
2023/07/17 01:56:29;;;;;;;17.13;12.48;;;21.10;99.90;;;;;;5068333;28;20037;-75
2023/07/17 01:58:58;;;;;;;14.90;11.60;;;21.10;99.90;;;;;;5068936;28;20043;-76
2023/07/17 02:01:26;;;;;;;15.98;12.65;;;21.00;99.90;;;;;;5067444;28;20076;-78
2023/07/17 02:03:53;;;;;;;13.68;12.13;;;21.00;99.90;;;;;;5068292;28;20041;-77
2023/07/17 02:06:21;;;;;;;12.82;11.52;;;20.90;99.90;;;;;;5071641;28;20041;-76
2023/07/17 02:08:48;;;;;;;13.48;12.07;;;20.90;99.90;;;;;;5071778;28;20040;-75
2023/07/17 02:11:15;;;;;;;14.25;11.70;;;20.90;99.90;;;;;;5071618;28;20047;-79
2023/07/17 02:13:43;;;;;;;15.93;12.07;;;20.90;99.90;;;;;;5072437;28;20048;-76
2023/07/17 02:16:12;;;;;;;17.00;12.57;;;20.80;99.90;;;;;;5072007;28;20040;-75
2023/07/17 02:18:39;;;;;;;13.93;11.98;;;20.80;99.90;;;;;;5058391;28;20041;-76
2023/07/17 02:21:07;;;;;;;13.25;11.35;;;20.80;99.90;;;;;;5052101;28;20041;-78
2023/07/17 02:23:34;;;;;;;14.38;12.15;;;20.80;99.90;;;;;;5052845;28;20033;-77
2023/07/17 02:26:03;;;;;;;15.05;11.20;;;20.80;99.90;;;;;;5052760;28;20408;-75
2023/07/17 02:28:30;;;;;;;13.43;11.93;;;20.80;99.90;;;;;;5060786;28;20041;-76
2023/07/17 02:30:58;;;;;;;13.88;12.45;;;20.80;99.90;;;;;;5075876;28;20029;-77
2023/07/17 02:33:27;;;;;;;16.10;13.23;;;20.70;99.90;;;;;;5068097;28;20041;-76
2023/07/17 02:35:54;;;;;;;14.65;12.50;;;20.80;99.90;;;;;;5059043;28;20068;-75
2023/07/17 02:38:22;;;;;;;13.95;12.55;;;20.80;99.90;;;;;;5054861;28;20532;-77
2023/07/17 02:40:50;;;;;;;16.95;12.57;;;20.80;99.90;;;;;;5076531;28;20044;-76
2023/07/17 02:43:17;;;;;;;13.38;11.93;;;20.80;99.90;;;;;;5086693;28;20075;-75
2023/07/17 02:45:45;;;;;;;15.07;13.00;;;20.80;99.90;;;;;;5061027;28;20076;-77
2023/07/17 02:48:12;;;;;;;13.60;12.25;;;20.70;99.90;;;;;;5062905;28;20111;-74
2023/07/17 02:50:41;;;;;;;15.95;12.80;;;20.70;99.90;;;;;;5065830;28;20052;-76
2023/07/17 02:53:08;;;;;;;16.20;12.93;;;20.70;99.90;;;;;;5067949;28;20029;-75
2023/07/17 02:55:36;;;;;;;16.15;13.27;;;20.70;99.90;;;;;;5063170;28;20051;-79
2023/07/17 02:58:04;;;;;;;15.32;13.63;;;20.70;99.90;;;;;;5052835;28;20049;-77
2023/07/17 03:00:31;;;;;;;16.92;13.10;;;20.60;99.90;;;;;;5049935;28;20497;-75
2023/07/17 03:02:59;;;;;;;13.80;11.98;;;20.60;99.90;;;;;;5069213;28;20060;-75
2023/07/17 03:05:26;;;;;;;13.50;12.20;;;20.60;99.90;;;;;;5071770;28;20049;-76
2023/07/17 03:07:55;;;;;;;12.82;11.50;;;20.60;99.90;;;;;;5072435;28;20044;-76
2023/07/17 03:10:23;;;;;;;15.00;12.05;;;20.60;99.90;;;;;;5070029;28;20095;-77
2023/07/17 03:12:50;;;;;;;14.88;13.10;;;20.60;99.90;;;;;;5071677;28;20600;-76
2023/07/17 03:15:18;;;;;;;13.55;12.02;;;20.50;99.90;;;;;;5050660;28;20141;-74
2023/07/17 03:17:45;;;;;;;15.13;11.98;;;20.50;99.90;;;;;;5050171;28;20488;-75
2023/07/17 03:20:14;;;;;;;15.93;12.15;;;20.60;99.90;;;;;;5049482;28;20059;-76
2023/07/17 03:22:41;;;;;;;13.52;11.50;;;20.60;99.90;;;;;;5050740;28;20283;-76
2023/07/17 03:25:10;;;;;;;13.10;11.65;;;20.60;99.90;;;;;;5050098;28;20045;-79
2023/07/17 03:27:38;;;;;;;15.80;11.93;;;20.70;99.90;;;;;;5051425;28;20041;-75
2023/07/17 03:30:07;;;;;;;13.77;11.63;;;20.70;99.90;;;;;;5051162;28;20045;-76
2023/07/17 03:32:34;;;;;;;15.57;11.90;;;20.70;99.90;;;;;;5050076;28;20083;-75
2023/07/17 03:35:02;;;;;;;16.38;11.93;;;20.80;99.90;;;;;;5049689;28;20067;-78
2023/07/17 03:37:30;;;;;;;15.45;12.45;;;20.80;99.90;;;;;;5061654;28;20040;-76
2023/07/17 03:39:58;;;;;;;14.10;12.40;;;20.80;99.90;;;;;;5070031;28;20431;-80
2023/07/17 03:42:27;;;;;;;12.52;11.30;;;20.90;99.90;;;;;;5069790;28;20048;-76
2023/07/17 03:44:55;;;;;;;19.40;13.15;;;20.90;99.90;;;;;;5069615;28;20049;-77
2023/07/17 03:47:23;;;;;;;15.25;12.80;;;20.90;99.90;;;;;;5072362;28;20044;-76
2023/07/17 03:49:51;;;;;;;15.82;14.02;;;20.90;99.90;;;;;;5077552;28;20067;-74
2023/07/17 03:52:19;;;;;;;17.33;13.50;;;21.00;99.90;;;;;;5072542;28;20063;-76
2023/07/17 03:54:46;;;;;;;16.67;12.95;;;21.00;99.90;;;;;;5080298;28;20094;-76
2023/07/17 03:57:15;;;;;;;17.38;13.30;;;21.00;99.90;;;;;;5076053;28;20056;-76
2023/07/17 03:59:52;;;;;;;15.68;12.15;;;21.00;99.90;;;;;;5069602;28;20067;-77
2023/07/17 04:02:24;;;;;;;14.43;12.32;;;21.20;99.90;;;;;;5069618;28;20491;-77
2023/07/17 04:04:52;;;;;;;15.27;11.77;;;21.50;99.90;;;;;;5069848;28;20048;-77
2023/07/17 04:07:23;;;;;;;16.13;11.07;;;22.00;99.90;;;;;;5069294;28;20055;-77
2023/07/17 04:09:50;;;;;;;16.25;11.00;;;22.60;99.90;;;;;;5064431;28;20048;-75
2023/07/17 04:12:18;;;;;;;13.48;11.20;;;23.10;99.90;;;;;;5049120;28;20584;-75
2023/07/17 04:14:45;;;;;;;14.52;11.30;;;23.60;99.90;;;;;;5048970;28;20048;-75
2023/07/17 04:17:14;;;;;;;12.73;10.30;;;24.30;99.90;;;;;;5048827;28;20052;-76
2023/07/17 04:19:42;;;;;;;16.50;10.32;;;24.90;99.90;;;;;;5050743;28;20040;-74
2023/07/17 04:22:09;;;;;;;11.13;9.50;;;25.60;99.90;;;;;;5049040;28;20128;-77
2023/07/17 04:24:37;;;;;;;10.27;9.07;;;26.10;99.90;;;;;;5049478;28;20049;-74
2023/07/17 04:27:05;;;;;;;11.00;8.82;;;26.70;99.90;;;;;;5048390;28;20420;-76
2023/07/17 04:29:32;;;;;;;15.15;10.07;;;27.30;99.90;;;;;;5048823;28;20102;-76
2023/07/17 04:32:03;;;;;;;12.00;8.68;;;27.90;99.90;;;;;;5048294;28;20052;-76
2023/07/17 04:34:34;;;;;;;10.55;8.32;;;28.20;99.90;;;;;;5066739;28;20556;-75
2023/07/17 04:37:02;;;;;;;10.95;9.57;;;28.40;99.90;;;;;;5069447;28;20508;-77
2023/07/17 04:39:29;;;;;;;13.18;8.57;;;28.80;99.90;;;;;;5068981;28;20055;-77
2023/07/17 04:41:57;;;;;;;12.02;8.88;;;28.50;99.90;;;;;;5069836;28;20076;-76
2023/07/17 04:44:24;;;;;;;13.45;8.52;;;28.80;99.90;;;;;;5067076;28;20516;-78
2023/07/17 04:46:52;;;;;;;11.82;9.18;;;29.50;99.90;;;;;;5043160;22;20061;-83
2023/07/17 04:49:20;;;;;;;11.38;8.80;;;29.60;99.90;;;;;;5010352;28;20057;-84
2023/07/17 04:51:50;;;;;;;14.35;10.32;;;30.50;99.90;;;;;;5008010;28;20046;-82
2023/07/17 04:54:18;;;;;;;14.85;9.02;;;31.20;99.90;;;;;;5008715;28;20081;-83
2023/07/17 04:56:46;;;;;;;11.05;8.13;;;32.00;99.90;;;;;;5024536;28;20041;-84
2023/07/17 04:59:18;;;;;;;14.40;10.52;;;32.60;99.90;;;;;;5025366;28;20050;-83
2023/07/17 05:01:46;;;;;;;11.07;7.82;;;33.10;99.90;;;;;;5008882;28;20077;-83
2023/07/17 05:04:14;;;;;;;9.35;8.35;;;33.60;99.90;;;;;;5009740;28;20101;-83
2023/07/17 05:06:42;;;;;;;12.20;9.30;;;33.70;99.90;;;;;;5024928;28;20042;-83
2023/07/17 05:09:11;;;;;;;11.93;8.90;;;33.60;99.90;;;;;;5025129;28;20049;-84
2023/07/17 05:11:40;;;;;;;12.70;9.07;;;33.70;99.90;;;;;;5024732;28;20046;-82
2023/07/17 05:14:08;;;;;;;14.75;8.95;;;34.10;99.90;;;;;;5025128;28;20410;-82
2023/07/17 05:16:36;;;;;;;12.52;9.25;;;34.60;99.90;;;;;;5010057;28;20041;-82
2023/07/17 05:19:04;;;;;;;13.63;8.80;;;34.90;99.90;;;;;;5009598;28;20536;-83
2023/07/17 05:21:34;;;;;;;13.52;9.20;;;35.10;99.90;;;;;;5024032;28;20042;-82
2023/07/17 05:24:02;;;;;;;11.63;9.13;;;35.10;99.90;;;;;;5024641;28;20054;-83
2023/07/17 05:26:32;;;;;;;14.30;9.68;;;34.50;99.90;;;;;;5024534;28;20048;-83
2023/07/17 05:28:59;;;;;;;10.90;8.55;;;34.30;99.90;;;;;;5024409;28;20180;-82
2023/07/17 05:31:27;;;;;;;15.68;9.55;;;34.00;99.90;;;;;;5024882;28;20042;-82
2023/07/17 05:33:56;;;;;;;11.73;9.45;;;34.20;99.90;;;;;;5008620;28;20458;-83
2023/07/17 05:36:23;;;;;;;13.10;9.63;;;33.70;99.90;;;;;;5010892;28;20053;-83
2023/07/17 05:38:51;;;;;;;16.25;9.82;;;34.10;99.90;;;;;;5010919;28;20057;-82
2023/07/17 05:41:19;;;;;;;13.45;9.95;;;34.30;99.90;;;;;;5026689;28;20061;-82
2023/07/17 05:43:48;;;;;;;11.18;9.32;;;33.90;99.90;;;;;;5008851;28;20042;-83
2023/07/17 05:46:19;;;;;;;12.45;9.10;;;33.30;99.90;;;;;;5024002;28;20062;-83
2023/07/17 05:48:47;;;;;;;12.23;9.50;;;33.40;99.90;;;;;;5023792;28;20050;-83
2023/07/17 05:51:15;;;;;;;14.70;11.90;;;34.30;99.90;;;;;;5023456;28;20042;-83
2023/07/17 05:53:42;;;;;;;15.23;11.13;;;34.60;99.90;;;;;;5007595;28;20524;-83
2023/07/17 05:56:11;;;;;;;19.15;12.73;;;35.20;99.90;;;;;;5008872;28;20089;-82
2023/07/17 05:58:41;;;;;;;13.00;11.30;;;35.30;99.90;;;;;;5024690;28;20046;-83
2023/07/17 06:01:10;;;;;;;19.65;14.20;;;35.20;99.90;;;;;;5023996;28;20050;-83
2023/07/17 06:03:37;;;;;;;15.68;10.63;;;35.70;99.90;;;;;;5007275;28;20505;-83
2023/07/17 06:06:04;;;;;;;15.65;10.98;;;35.20;99.90;;;;;;5005080;28;20038;-83
2023/07/17 06:08:32;;;;;;;16.13;10.30;;;34.50;99.90;;;;;;4989418;28;20050;-82
2023/07/17 06:10:59;;;;;;;16.17;10.18;;;33.90;99.90;;;;;;4989118;28;20053;-81
2023/07/17 06:13:27;;;;;;;14.82;10.30;;;33.30;99.90;;;;;;4989833;28;20080;-83
2023/07/17 06:15:54;;;;;;;11.82;9.88;;;32.50;99.90;;;;;;4989945;28;20062;-83
2023/07/17 06:18:23;;;;;;;14.88;10.82;;;31.60;99.90;;;;;;4989476;28;20184;-83
2023/07/17 06:20:51;;;;;;;13.18;10.00;;;31.10;99.90;;;;;;4989123;28;20038;-83
2023/07/17 06:23:18;;;;;;;13.27;10.27;;;30.70;99.90;;;;;;4989325;28;20043;-82
2023/07/17 06:25:46;;;;;;;18.05;12.15;;;30.50;99.90;;;;;;4997106;28;20060;-83
2023/07/17 06:28:14;;;;;;;16.42;14.65;;;30.20;99.90;;;;;;5006397;28;20042;-83
2023/07/17 06:30:41;;;;;;;15.77;13.05;;;29.90;99.90;;;;;;4989056;28;20039;-82
2023/07/17 06:33:09;;;;;;;19.23;12.90;;;29.70;99.90;;;;;;4989705;28;20045;-82
2023/07/17 06:35:37;;;;;;;14.02;11.18;;;30.10;99.90;;;;;;4988697;28;20049;-82
2023/07/17 06:38:05;;;;;;;16.55;12.38;;;30.40;99.90;;;;;;4989684;28;20062;-82
2023/07/17 06:40:34;;;;;;;22.98;16.83;;;30.50;99.90;;;;;;4989244;28;20042;-82
2023/07/17 06:43:02;;;;;;;19.50;13.32;;;30.60;99.90;;;;;;4990333;28;20042;-83
2023/07/17 06:45:30;;;;;;;16.10;13.10;;;31.00;99.90;;;;;;5025478;28;20083;-83
2023/07/17 06:47:57;;;;;;;16.52;12.30;;;31.50;99.90;;;;;;5011216;28;20046;-83
2023/07/17 06:50:24;;;;;;;18.27;14.75;;;31.60;99.90;;;;;;5011092;28;20042;-82
2023/07/17 06:52:53;;;;;;;16.80;14.00;;;32.00;99.90;;;;;;5012943;28;20038;-82
2023/07/17 06:55:21;;;;;;;18.42;13.00;;;32.20;99.90;;;;;;5012521;28;20100;-82
2023/07/17 06:57:48;;;;;;;14.73;13.02;;;32.50;99.90;;;;;;5012501;28;20042;-83
2023/07/17 07:00:16;;;;;;;20.00;14.77;;;32.60;99.90;;;;;;5011733;28;20052;-83
2023/07/17 07:02:43;;;;;;;22.50;17.67;;;32.70;99.90;;;;;;5011776;28;20125;-82
2023/07/17 07:05:11;;;;;;;20.23;13.30;;;32.60;99.90;;;;;;5011703;28;20453;-82
2023/07/17 07:07:38;;;;;;;20.13;13.63;;;32.70;99.90;;;;;;5010184;28;20384;-84
2023/07/17 07:10:09;;;;;;;16.42;13.68;;;32.80;99.90;;;;;;4991861;28;20487;-84
2023/07/17 07:12:36;;;;;;;14.60;12.98;;;32.80;99.90;;;;;;4991731;28;20062;-83
2023/07/17 07:15:05;;;;;;;21.15;13.40;;;32.60;99.90;;;;;;4992052;28;20491;-82
2023/07/17 07:17:32;;;;;;;18.65;13.68;;;32.60;99.90;;;;;;5007048;28;20061;-83
2023/07/17 07:20:00;;;;;;;18.45;13.60;;;32.70;99.90;;;;;;5006242;28;20050;-82
2023/07/17 07:22:27;;;;;;;20.05;13.70;;;32.90;99.90;;;;;;5003188;28;20129;-82
2023/07/17 07:24:54;;;;;;;18.23;14.88;;;32.60;99.90;;;;;;5011267;28;20068;-82
2023/07/17 07:27:25;;;;;;;17.70;14.38;;;32.80;99.90;;;;;;5021080;28;20032;-82
2023/07/17 07:29:53;;;;;;;17.83;13.60;;;32.80;99.90;;;;;;5018613;28;20073;-82
2023/07/17 07:32:20;;;;;;;15.80;13.52;;;33.00;99.90;;;;;;5032541;28;20046;-82
2023/07/17 07:34:47;;;;;;;16.08;12.70;;;32.50;99.90;;;;;;5012101;28;20245;-82
2023/07/17 07:37:15;;;;;;;15.20;13.63;;;32.40;99.90;;;;;;5011444;28;20460;-83
2023/07/17 07:39:42;;;;;;;19.52;14.05;;;32.30;99.90;;;;;;5011554;28;20042;-82
2023/07/17 07:42:10;;;;;;;15.75;12.60;;;32.50;99.90;;;;;;5011316;28;20042;-83
2023/07/17 07:44:38;;;;;;;15.93;13.65;;;32.60;99.90;;;;;;5011274;28;20512;-83
2023/07/17 07:47:06;;;;;;;26.63;16.25;;;32.70;99.90;;;;;;5011495;28;20058;-83
2023/07/17 07:49:34;;;;;;;20.40;14.07;;;32.90;99.90;;;;;;5012020;28;20042;-83
2023/07/17 07:52:01;;;;;;;18.73;12.55;;;33.00;99.90;;;;;;5026433;28;20526;-82
2023/07/17 07:54:29;;;;;;;17.70;13.70;;;32.80;99.90;;;;;;5011395;28;20066;-82
2023/07/17 07:56:56;;;;;;;18.50;14.43;;;33.10;99.90;;;;;;5011305;28;20046;-82
2023/07/17 07:59:23;;;;;;;22.40;15.68;;;33.30;99.90;;;;;;5009586;28;20100;-83
2023/07/17 08:01:52;;;;;;;20.88;14.63;;;33.40;99.90;;;;;;5003194;28;20050;-83
2023/07/17 08:04:20;;;;;;;16.73;14.32;;;33.70;99.90;;;;;;5011138;28;20053;-83
2023/07/17 08:06:47;;;;;;;18.83;14.65;;;33.90;99.90;;;;;;5010748;28;20070;-83
2023/07/17 08:09:15;;;;;;;19.38;16.02;;;34.10;99.90;;;;;;5010788;28;20060;-83
2023/07/17 08:11:42;;;;;;;20.77;14.98;;;33.90;99.90;;;;;;5012184;28;20062;-83
2023/07/17 08:14:10;;;;;;;21.15;13.95;;;33.70;99.90;;;;;;5011201;28;20042;-83
2023/07/17 08:16:37;;;;;;;21.15;16.77;;;33.70;99.90;;;;;;5015506;28;20401;-83
2023/07/17 08:19:07;;;;;;;19.38;17.10;;;33.90;99.90;;;;;;5015623;28;20515;-83
2023/07/17 08:21:34;;;;;;;17.27;15.48;;;33.90;99.90;;;;;;5010278;28;20493;-82
2023/07/17 08:24:01;;;;;;;24.98;15.60;;;33.80;99.90;;;;;;5010574;28;20046;-83
2023/07/17 08:26:29;;;;;;;15.50;13.90;;;33.80;99.90;;;;;;5010718;28;20517;-83
2023/07/17 08:28:57;;;;;;;17.60;12.90;;;33.80;99.90;;;;;;5010146;28;20044;-83
2023/07/17 08:31:24;;;;;;;19.83;14.23;;;34.00;99.90;;;;;;5025160;28;20046;-83
2023/07/17 08:33:52;;;;;;;24.02;18.85;;;34.10;99.90;;;;;;5011214;28;20042;-83
2023/07/17 08:36:22;;;;;;;23.08;18.13;;;34.10;99.90;;;;;;5013547;28;20542;-83
2023/07/17 08:38:49;;;;;;;16.77;13.65;;;34.30;99.90;;;;;;5010803;28;20045;-83
2023/07/17 08:41:16;;;;;;;19.63;13.95;;;34.00;99.90;;;;;;5025027;28;20038;-83
2023/07/17 08:43:44;;;;;;;22.80;14.35;;;33.80;99.90;;;;;;5010472;28;20034;-82
2023/07/17 08:46:13;;;;;;;21.05;13.57;;;33.90;99.90;;;;;;5010331;28;20068;-82
2023/07/17 08:48:43;;;;;;;17.67;15.40;;;34.10;99.90;;;;;;5010259;28;20038;-83
2023/07/17 08:51:11;;;;;;;18.17;15.80;;;34.30;99.90;;;;;;5009647;28;20516;-83
2023/07/17 08:53:41;;;;;;;17.02;14.15;;;34.50;99.90;;;;;;5010145;28;20042;-83
2023/07/17 08:56:11;;;;;;;15.65;12.45;;;34.20;99.90;;;;;;5010092;28;20046;-83
2023/07/17 08:58:40;;;;;;;16.13;12.60;;;34.40;99.90;;;;;;5009945;28;20026;-83
2023/07/17 09:01:07;;;;;;;14.98;10.43;;;34.60;99.90;;;;;;5007150;28;20121;-83
2023/07/17 09:03:36;;;;;;;18.75;14.75;;;34.60;99.90;;;;;;4990201;28;20038;-83
2023/07/17 09:06:05;;;;;;;18.77;13.90;;;34.80;99.90;;;;;;4990279;28;20618;-83
2023/07/17 09:08:33;;;;;;;13.77;11.23;;;34.80;99.90;;;;;;4990093;28;20419;-83
2023/07/17 09:11:05;;;;;;;16.17;10.77;;;34.60;99.90;;;;;;4989392;28;20502;-83
2023/07/17 09:13:40;;;;;;;17.67;13.07;;;34.70;99.90;;;;;;4989844;28;20034;-82
2023/07/17 09:16:15;;;;;;;18.23;13.32;;;34.90;99.90;;;;;;4990568;28;20050;-83
2023/07/17 09:18:43;;;;;;;18.38;13.32;;;34.80;99.90;;;;;;4990279;28;20148;-84
2023/07/17 09:21:13;;;;;;;16.38;12.43;;;34.90;99.90;;;;;;4989253;28;20046;-83
2023/07/17 09:23:44;;;;;;;19.20;11.32;;;34.90;99.90;;;;;;4989671;28;20061;-83
2023/07/17 09:26:14;;;;;;;17.77;14.57;;;34.80;99.90;;;;;;4989585;28;20057;-83
2023/07/17 09:28:48;;;;;;;17.95;11.95;;;34.80;99.90;;;;;;5005175;28;20046;-83
2023/07/17 09:31:22;;;;;;;19.45;11.00;;;34.80;99.90;;;;;;4989734;28;20065;-83
2023/07/17 09:33:50;;;;;;;13.90;10.35;;;34.80;99.90;;;;;;4989847;28;20053;-83
2023/07/17 09:36:17;;;;;;;13.02;9.80;;;34.80;99.90;;;;;;4989380;28;20440;-83
2023/07/17 09:38:45;;;;;;;17.98;11.50;;;34.80;99.90;;;;;;4989782;28;20035;-82
2023/07/17 09:41:23;;;;;;;13.95;10.68;;;34.80;99.90;;;;;;4989381;28;20485;-83
2023/07/17 09:44:00;;;;;;;12.40;9.75;;;34.90;99.90;;;;;;5009388;28;20406;-82
2023/07/17 09:46:28;;;;;;;20.27;10.35;;;34.90;99.90;;;;;;4989349;28;20064;-83
2023/07/17 09:48:56;;;;;;;15.98;9.50;;;35.10;99.90;;;;;;4989589;28;20072;-83
2023/07/17 09:51:25;;;;;;;14.45;10.70;;;35.20;99.90;;;;;;4988805;28;20490;-83
2023/07/17 09:53:53;;;;;;;12.85;10.10;;;35.30;99.90;;;;;;4989050;28;20112;-84
2023/07/17 09:56:23;;;;;;;13.18;7.97;;;35.30;99.90;;;;;;5005689;28;20034;-83
2023/07/17 09:58:53;;;;;;;24.85;9.18;;;35.40;99.90;;;;;;5009979;28;20046;-83
2023/07/17 10:01:25;;;;;;;14.85;9.98;;;35.30;99.90;;;;;;5008713;28;20073;-82
2023/07/17 10:03:55;;;;;;;17.08;9.55;;;35.30;99.90;;;;;;5009072;28;20042;-83
2023/07/17 10:06:23;;;;;;;15.70;8.10;;;35.30;99.90;;;;;;5007711;28;20132;-83
2023/07/17 10:08:52;;;;;;;14.52;10.45;;;35.20;99.90;;;;;;5009058;28;20042;-81
2023/07/17 10:11:21;;;;;;;17.08;8.35;;;35.10;99.90;;;;;;5008595;28;20530;-82
2023/07/17 10:13:50;;;;;;;15.05;7.75;;;35.10;99.90;;;;;;5009462;28;20038;-81
2023/07/17 10:16:19;;;;;;;17.15;8.23;;;35.20;99.90;;;;;;5007887;28;20046;-84
2023/07/17 10:18:48;;;;;;;13.15;7.50;;;35.20;99.90;;;;;;5007777;28;20049;-83
2023/07/17 10:21:17;;;;;;;11.25;7.82;;;35.40;99.90;;;;;;5008654;28;20051;-82
2023/07/17 10:23:45;;;;;;;15.80;9.77;;;35.50;99.90;;;;;;5009056;28;20058;-83
2023/07/17 10:26:16;;;;;;;16.45;10.73;;;35.70;99.90;;;;;;5011582;28;20046;-81
2023/07/17 10:28:48;;;;;;;14.75;10.45;;;35.90;99.90;;;;;;5012094;28;20037;-82
2023/07/17 10:31:19;;;;;;;20.05;9.65;;;36.00;99.90;;;;;;5012110;28;20049;-82
2023/07/17 10:33:49;;;;;;;14.82;9.55;;;36.00;99.90;;;;;;5030030;28;20046;-83
2023/07/17 10:36:18;;;;;;;16.90;9.50;;;36.00;99.90;;;;;;5012912;28;20049;-82
2023/07/17 10:38:51;;;;;;;13.75;10.88;;;35.90;99.90;;;;;;5013308;28;20386;-81
2023/07/17 10:41:27;;;;;;;14.10;8.82;;;36.00;99.90;;;;;;5011903;28;20494;-83
2023/07/17 10:44:01;;;;;;;11.30;8.63;;;36.10;99.90;;;;;;5012087;28;20041;-82
2023/07/17 10:46:29;;;;;;;13.23;8.68;;;36.10;99.90;;;;;;5012606;28;20066;-83
2023/07/17 10:49:06;;;;;;;13.20;8.85;;;35.90;99.90;;;;;;5012346;28;20046;-81
2023/07/17 10:51:33;;;;;;;15.23;9.48;;;36.00;99.90;;;;;;5011511;28;20069;-82
2023/07/17 10:54:00;;;;;;;10.80;8.27;;;36.00;99.90;;;;;;5013317;28;20053;-82
2023/07/17 10:56:31;;;;;;;13.73;9.00;;;36.20;99.90;;;;;;5015975;28;20542;-83
2023/07/17 10:59:00;;;;;;;14.70;11.13;;;36.10;99.90;;;;;;5015559;28;20038;-83
2023/07/17 11:01:28;;;;;;;14.55;9.68;;;36.10;99.90;;;;;;5008207;28;20034;-82
2023/07/17 11:03:55;;;;;;;13.13;9.60;;;36.20;99.90;;;;;;4992354;28;20558;-83
2023/07/17 11:06:26;;;;;;;11.90;9.50;;;36.30;99.90;;;;;;4994251;28;20050;-83
2023/07/17 11:08:55;;;;;;;13.32;10.38;;;36.20;99.90;;;;;;5012242;28;20046;-83
2023/07/17 11:11:22;;;;;;;16.92;8.93;;;36.20;99.90;;;;;;5010060;28;20568;-84
2023/07/17 11:13:52;;;;;;;13.23;9.80;;;36.20;99.90;;;;;;5012341;28;20042;-84
2023/07/17 11:16:23;;;;;;;21.92;11.00;;;36.00;99.90;;;;;;5011999;28;20045;-83
2023/07/17 11:18:52;;;;;;;14.75;9.73;;;36.10;99.90;;;;;;5011956;28;20533;-83
2023/07/17 11:21:22;;;;;;;11.55;8.50;;;36.10;99.90;;;;;;5011587;28;20042;-83
2023/07/17 11:23:50;;;;;;;14.07;10.20;;;36.10;99.90;;;;;;5010296;28;20413;-83
2023/07/17 11:26:20;;;;;;;12.65;8.90;;;36.00;99.90;;;;;;5011635;28;20060;-82
2023/07/17 11:28:52;;;;;;;14.43;9.80;;;35.80;99.90;;;;;;5012043;28;20550;-83
2023/07/17 11:31:23;;;;;;;9.80;8.80;;;35.80;99.90;;;;;;5019178;28;20037;-80
2023/07/17 11:33:56;;;;;;;12.60;8.13;;;35.90;99.90;;;;;;5029088;28;20042;-83
2023/07/17 11:36:24;;;;;;;13.75;8.73;;;35.90;99.90;;;;;;5029600;28;20767;-82
2023/07/17 11:38:51;;;;;;;11.70;9.15;;;35.90;99.90;;;;;;5011832;28;20050;-83
2023/07/17 11:41:19;;;;;;;13.57;9.05;;;35.90;99.90;;;;;;5011103;28;20068;-83
2023/07/17 11:43:57;;;;;;;11.73;8.82;;;35.90;99.90;;;;;;5012289;28;20042;-83
2023/07/17 11:46:27;;;;;;;14.75;9.30;;;36.00;99.90;;;;;;5011200;28;20157;-82
2023/07/17 11:48:55;;;;;;;14.60;8.43;;;36.00;99.90;;;;;;5012303;28;20049;-81
2023/07/17 11:51:26;;;;;;;13.38;9.45;;;36.10;99.90;;;;;;5011173;28;20581;-82
2023/07/17 11:53:55;;;;;;;11.98;8.95;;;36.10;99.90;;;;;;5011088;28;20322;-82
2023/07/17 11:56:22;;;;;;;13.15;9.10;;;36.00;99.90;;;;;;5011240;28;20053;-83
2023/07/17 11:58:53;;;;;;;12.73;9.13;;;36.00;99.90;;;;;;5011666;28;20065;-83
2023/07/17 12:01:22;;;;;;;45.05;39.55;;;36.10;99.90;;;;;;5007001;28;20039;-83
2023/07/17 12:03:51;;;;;;;12.50;9.48;;;36.00;99.90;;;;;;5003021;28;20041;-82
2023/07/17 12:06:18;;;;;;;15.13;9.20;;;36.00;99.90;;;;;;5011031;28;20455;-83
2023/07/17 12:08:46;;;;;;;14.55;10.13;;;36.10;99.90;;;;;;5011162;28;20053;-82
2023/07/17 12:11:14;;;;;;;12.00;8.48;;;36.10;99.90;;;;;;5010724;28;20121;-83
2023/07/17 12:13:42;;;;;;;13.93;10.10;;;36.10;99.90;;;;;;5009964;28;20042;-82
2023/07/17 12:16:09;;;;;;;16.92;10.52;;;36.00;99.90;;;;;;5010761;28;20038;-82
2023/07/17 12:18:37;;;;;;;13.38;9.85;;;36.10;99.90;;;;;;5010906;28;20044;-84
2023/07/17 12:21:06;;;;;;;18.40;11.50;;;36.10;99.90;;;;;;5010525;28;20042;-82
2023/07/17 12:23:34;;;;;;;16.58;10.52;;;36.20;99.90;;;;;;5011462;28;20077;-82
2023/07/17 12:26:01;;;;;;;13.68;10.05;;;36.10;99.90;;;;;;5011174;28;20088;-83
2023/07/17 12:28:35;;;;;;;17.50;11.00;;;36.10;99.90;;;;;;5011304;28;20482;-83
2023/07/17 12:31:10;;;;;;;18.27;14.25;;;36.10;99.90;;;;;;5010455;28;20405;-83
2023/07/17 12:33:38;;;;;;;15.75;10.23;;;36.20;99.90;;;;;;5010429;28;20052;-82
2023/07/17 12:36:07;;;;;;;23.23;16.45;;;36.30;99.90;;;;;;5010027;28;20046;-82